createdAt,value
2016-11-29T00:01:52.954Z,1034.5
2016-11-29T00:02:54.391Z,1034.5
2016-11-29T00:03:55.833Z,1034.5
2016-11-29T00:04:57.267Z,1034.5
2016-11-29T00:05:58.709Z,1034.5
2016-11-29T00:07:00.150Z,1034.5
2016-11-29T00:08:01.619Z,1034.5
2016-11-29T00:09:02.552Z,1034.4
2016-11-29T00:10:03.987Z,1034.5
2016-11-29T00:11:05.427Z,1034.5
2016-11-29T00:12:06.862Z,1034.4
2016-11-29T00:13:08.303Z,1034.5
2016-11-29T00:14:09.739Z,1034.5
2016-11-29T00:16:12.572Z,1034.5
2016-11-29T00:17:14.007Z,1034.5
2016-11-29T00:18:15.441Z,1034.5
2016-11-29T00:19:16.376Z,1034.5
2016-11-29T00:20:17.835Z,1034.5
2016-11-29T00:21:19.328Z,1034.5
2016-11-29T00:22:20.761Z,1034.5
2016-11-29T00:23:22.197Z,1034.5
2016-11-29T00:24:23.633Z,1034.5
2016-11-29T00:25:25.075Z,1034.6
2016-11-29T00:27:27.913Z,1034.5
2016-11-29T00:28:28.842Z,1034.5
2016-11-29T00:29:30.415Z,1034.5
2016-11-29T00:30:31.848Z,1034.5
2016-11-29T00:31:33.283Z,1034.5
2016-11-29T00:33:36.132Z,1034.5
2016-11-29T00:34:37.563Z,1034.5
2016-11-29T00:35:38.500Z,1034.6
2016-11-29T00:36:39.940Z,1034.5
2016-11-29T00:37:41.372Z,1034.5
2016-11-29T00:38:42.806Z,1034.5
2016-11-29T00:39:44.244Z,1034.5
2016-11-29T00:41:47.217Z,1034.5
2016-11-29T00:42:48.653Z,1034.5
2016-11-29T00:43:49.591Z,1034.5
2016-11-29T00:44:51.022Z,1034.5
2016-11-29T00:45:52.457Z,1034.5
2016-11-29T00:46:53.890Z,1034.5
2016-11-29T00:47:55.327Z,1034.5
2016-11-29T00:48:56.762Z,1034.5
2016-11-29T00:49:58.202Z,1034.6
2016-11-29T00:50:59.642Z,1034.6
2016-11-29T00:52:00.584Z,1034.6
2016-11-29T00:53:02.019Z,1034.6
2016-11-29T00:54:03.453Z,1034.6
2016-11-29T00:55:04.887Z,1034.6
2016-11-29T00:56:06.331Z,1034.6
2016-11-29T00:57:07.776Z,1034.6
2016-11-29T00:58:09.207Z,1034.6
2016-11-29T00:59:10.639Z,1034.6
2016-11-29T01:00:12.073Z,1034.6
2016-11-29T01:01:13.004Z,1034.6
2016-11-29T01:02:14.437Z,1034.6
2016-11-29T01:03:15.874Z,1034.7
2016-11-29T01:04:17.303Z,1034.7
2016-11-29T01:05:18.736Z,1034.7
2016-11-29T01:06:20.173Z,1034.7
2016-11-29T01:07:21.610Z,1034.7
2016-11-29T01:08:23.049Z,1034.7
2016-11-29T01:09:24.481Z,1034.7
2016-11-29T01:10:25.413Z,1034.7
2016-11-29T01:11:26.848Z,1034.7
2016-11-29T01:12:28.281Z,1034.8
2016-11-29T01:13:29.711Z,1034.8
2016-11-29T01:14:31.145Z,1034.8
2016-11-29T01:15:32.577Z,1034.8
2016-11-29T01:16:34.009Z,1034.8
2016-11-29T01:17:35.447Z,1034.8
2016-11-29T01:18:36.881Z,1034.7
2016-11-29T01:19:37.815Z,1034.8
2016-11-29T01:20:39.250Z,1034.7
2016-11-29T01:21:40.687Z,1034.7
2016-11-29T01:22:42.122Z,1034.8
2016-11-29T01:23:43.558Z,1034.8
2016-11-29T01:24:44.990Z,1034.7
2016-11-29T01:25:46.423Z,1034.7
2016-11-29T01:26:47.858Z,1034.7
2016-11-29T01:27:49.299Z,1034.8
2016-11-29T01:28:50.231Z,1034.7
2016-11-29T01:29:51.663Z,1034.8
2016-11-29T01:30:53.101Z,1034.7
2016-11-29T01:31:54.539Z,1034.7
2016-11-29T01:32:55.971Z,1034.7
2016-11-29T01:33:57.408Z,1034.7
2016-11-29T01:34:58.849Z,1034.7
2016-11-29T01:36:00.290Z,1034.7
2016-11-29T01:37:01.229Z,1034.7
2016-11-29T01:38:02.731Z,1034.7
2016-11-29T01:39:04.210Z,1034.8
2016-11-29T01:42:08.452Z,1034.8
2016-11-29T01:43:09.894Z,1034.8
2016-11-29T01:44:10.824Z,1034.8
2016-11-29T01:45:12.265Z,1034.8
2016-11-29T01:46:13.704Z,1034.8
2016-11-29T01:47:15.143Z,1034.8
2016-11-29T01:48:16.612Z,1034.8
2016-11-29T01:49:18.045Z,1034.9
2016-11-29T01:50:19.480Z,1034.9
2016-11-29T01:52:21.809Z,1035
2016-11-29T01:53:23.240Z,1035
2016-11-29T01:54:24.672Z,1035
2016-11-29T01:55:26.110Z,1035
2016-11-29T01:56:27.546Z,1034.9
2016-11-29T01:57:28.988Z,1034.9
2016-11-29T01:58:30.430Z,1034.9
2016-11-29T01:59:31.501Z,1034.9
2016-11-29T02:00:32.963Z,1034.9
2016-11-29T02:01:34.410Z,1034.9
2016-11-29T02:02:35.841Z,1034.9
2016-11-29T02:03:37.279Z,1034.9
2016-11-29T02:04:38.711Z,1034.9
2016-11-29T02:05:39.652Z,1035
2016-11-29T02:06:41.084Z,1035
2016-11-29T02:07:42.515Z,1034.9
2016-11-29T02:08:43.946Z,1034.9
2016-11-29T02:09:45.379Z,1034.9
2016-11-29T02:10:46.812Z,1034.9
2016-11-29T02:11:48.267Z,1034.9
2016-11-29T02:12:49.701Z,1034.8
2016-11-29T02:13:50.632Z,1034.8
2016-11-29T02:14:52.067Z,1034.8
2016-11-29T02:15:53.502Z,1034.8
2016-11-29T02:16:54.936Z,1034.8
2016-11-29T02:17:56.376Z,1034.7
2016-11-29T02:18:57.815Z,1034.7
2016-11-29T02:19:59.248Z,1034.8
2016-11-29T02:22:01.593Z,1034.7
2016-11-29T02:23:03.032Z,1034.7
2016-11-29T02:24:04.459Z,1034.7
2016-11-29T02:25:05.895Z,1034.7
2016-11-29T02:26:07.369Z,1034.6
2016-11-29T02:27:08.808Z,1034.6
2016-11-29T02:28:10.247Z,1034.6
2016-11-29T02:29:11.175Z,1034.6
2016-11-29T02:30:12.608Z,1034.6
2016-11-29T02:31:14.040Z,1034.6
2016-11-29T02:33:16.876Z,1034.5
2016-11-29T02:34:18.310Z,1034.5
2016-11-29T02:35:19.745Z,1034.5
2016-11-29T02:36:21.179Z,1034.4
2016-11-29T02:37:22.111Z,1034.4
2016-11-29T02:38:23.544Z,1034.4
2016-11-29T02:39:24.979Z,1034.4
2016-11-29T02:40:26.418Z,1034.4
2016-11-29T02:41:27.856Z,1034.4
2016-11-29T02:42:29.292Z,1034.4
2016-11-29T02:43:30.723Z,1034.5
2016-11-29T02:44:32.163Z,1034.4
2016-11-29T02:45:33.099Z,1034.4
2016-11-29T02:46:34.535Z,1034.2
2016-11-29T02:47:35.973Z,1034.4
2016-11-29T02:48:37.414Z,1034.2
2016-11-29T02:49:38.847Z,1034.2
2016-11-29T02:50:40.283Z,1034.2
2016-11-29T02:51:41.716Z,1034.2
2016-11-29T02:52:42.646Z,1034.2
2016-11-29T02:53:44.080Z,1034.2
2016-11-29T02:54:45.519Z,1034.2
2016-11-29T02:55:47.091Z,1034.2
2016-11-29T02:56:48.527Z,1034.1
2016-11-29T02:57:49.463Z,1034.2
2016-11-29T02:58:50.896Z,1034.2
2016-11-29T02:59:52.331Z,1034.2
2016-11-29T03:00:53.763Z,1034.4
2016-11-29T03:02:56.604Z,1034.4
2016-11-29T03:03:57.676Z,1034.4
2016-11-29T03:04:59.113Z,1034.4
2016-11-29T03:06:00.560Z,1034.5
2016-11-29T03:07:01.997Z,1034.5
2016-11-29T03:09:04.835Z,1034.5
2016-11-29T03:10:06.276Z,1034.6
2016-11-29T03:11:07.209Z,1034.5
2016-11-29T03:12:08.649Z,1034.5
2016-11-29T03:14:11.478Z,1034.6
2016-11-29T03:15:12.915Z,1034.5
2016-11-29T03:16:14.343Z,1034.6
2016-11-29T03:18:17.181Z,1034.6
2016-11-29T03:19:18.115Z,1034.6
2016-11-29T03:20:19.548Z,1034.6
2016-11-29T03:21:20.991Z,1034.7
2016-11-29T03:22:22.421Z,1034.7
2016-11-29T03:23:23.857Z,1034.6
2016-11-29T03:24:25.291Z,1034.6
2016-11-29T03:25:26.722Z,1034.6
2016-11-29T03:26:27.654Z,1034.5
2016-11-29T03:27:29.088Z,1034.6
2016-11-29T03:28:30.528Z,1034.6
2016-11-29T03:29:31.959Z,1034.6
2016-11-29T03:30:33.388Z,1034.7
2016-11-29T03:31:34.813Z,1034.6
2016-11-29T03:32:36.242Z,1034.7
2016-11-29T03:33:37.670Z,1034.6
2016-11-29T03:34:38.608Z,1034.6
2016-11-29T03:35:40.042Z,1034.6
2016-11-29T03:36:41.472Z,1034.6
2016-11-29T03:37:42.915Z,1034.6
2016-11-29T03:38:44.342Z,1034.6
2016-11-29T03:39:45.779Z,1034.6
2016-11-29T03:40:47.211Z,1034.6
2016-11-29T03:43:50.943Z,1034.6
2016-11-29T03:44:52.370Z,1034.5
2016-11-29T03:45:53.803Z,1034.6
2016-11-29T03:46:55.227Z,1034.5
2016-11-29T03:47:56.658Z,1034.5
2016-11-29T03:48:57.767Z,1034.5
2016-11-29T03:49:59.204Z,1034.5
2016-11-29T03:51:00.636Z,1034.5
2016-11-29T03:52:02.214Z,1034.5
2016-11-29T03:53:03.270Z,1034.5
2016-11-29T03:56:07.504Z,1034.5
2016-11-29T03:57:08.941Z,1034.5
2016-11-29T03:58:10.375Z,1034.5
2016-11-29T03:59:11.306Z,1034.5
2016-11-29T04:00:12.745Z,1034.6
2016-11-29T04:01:14.178Z,1034.6
2016-11-29T04:02:15.613Z,1034.6
2016-11-29T04:03:17.045Z,1034.5
2016-11-29T04:04:18.488Z,1034.5
2016-11-29T04:05:19.918Z,1034.5
2016-11-29T04:06:20.846Z,1034.6
2016-11-29T04:07:22.274Z,1034.6
2016-11-29T04:08:23.709Z,1034.6
2016-11-29T04:09:25.137Z,1034.6
2016-11-29T04:10:26.568Z,1034.6
2016-11-29T04:11:28.006Z,1034.6
2016-11-29T04:12:29.445Z,1034.6
2016-11-29T04:13:30.374Z,1034.5
2016-11-29T04:14:31.806Z,1034.6
2016-11-29T04:15:33.243Z,1034.6
2016-11-29T04:16:34.673Z,1034.6
2016-11-29T04:17:36.099Z,1034.6
2016-11-29T04:19:38.937Z,1034.6
2016-11-29T04:20:40.368Z,1034.6
2016-11-29T04:21:41.301Z,1034.6
2016-11-29T04:22:42.729Z,1034.5
2016-11-29T04:23:44.162Z,1034.5
2016-11-29T04:25:46.994Z,1034.5
2016-11-29T04:26:48.430Z,1034.5
2016-11-29T04:27:49.862Z,1034.5
2016-11-29T04:28:50.791Z,1034.4
2016-11-29T04:29:52.229Z,1034.5
2016-11-29T04:30:53.662Z,1034.5
2016-11-29T04:31:55.092Z,1034.5
2016-11-29T04:32:56.526Z,1034.5
2016-11-29T04:33:57.954Z,1034.5
2016-11-29T04:36:00.285Z,1034.5
2016-11-29T04:37:01.726Z,1034.5
2016-11-29T04:38:03.159Z,1034.5
2016-11-29T04:39:04.598Z,1034.5
2016-11-29T04:40:06.034Z,1034.5
2016-11-29T04:41:07.474Z,1034.5
2016-11-29T04:42:08.901Z,1034.6
2016-11-29T04:43:09.833Z,1034.5
2016-11-29T04:44:11.271Z,1034.5
2016-11-29T04:45:12.702Z,1034.5
2016-11-29T04:46:14.135Z,1034.5
2016-11-29T04:47:15.562Z,1034.5
2016-11-29T04:48:16.994Z,1034.6
2016-11-29T04:49:17.955Z,1034.6
2016-11-29T04:50:19.391Z,1034.4
2016-11-29T04:51:20.819Z,1034.5
2016-11-29T04:53:23.653Z,1034.6
2016-11-29T04:55:26.480Z,1034.6
2016-11-29T04:56:27.901Z,1034.6
2016-11-29T04:57:28.826Z,1034.6
2016-11-29T04:58:30.261Z,1034.7
2016-11-29T04:59:31.690Z,1034.6
2016-11-29T05:00:33.121Z,1034.6
2016-11-29T05:01:34.554Z,1034.6
2016-11-29T05:02:35.984Z,1034.7
2016-11-29T05:03:37.051Z,1034.7
2016-11-29T05:04:38.486Z,1034.7
2016-11-29T05:05:39.915Z,1034.7
2016-11-29T05:06:41.351Z,1034.7
2016-11-29T05:07:42.786Z,1034.8
2016-11-29T05:08:44.218Z,1034.8
2016-11-29T05:09:45.150Z,1034.7
2016-11-29T05:10:46.583Z,1034.7
2016-11-29T05:11:48.015Z,1034.7
2016-11-29T05:12:49.455Z,1034.7
2016-11-29T05:13:50.887Z,1034.7
2016-11-29T05:14:52.322Z,1034.6
2016-11-29T05:15:53.278Z,1034.7
2016-11-29T05:16:54.710Z,1034.7
2016-11-29T05:17:56.140Z,1034.6
2016-11-29T05:18:57.571Z,1034.7
2016-11-29T05:21:00.400Z,1034.7
2016-11-29T05:22:01.835Z,1034.7
2016-11-29T05:23:02.762Z,1034.8
2016-11-29T05:24:04.195Z,1034.7
2016-11-29T05:25:05.632Z,1034.7
2016-11-29T05:26:07.067Z,1034.7
2016-11-29T05:27:08.503Z,1034.7
2016-11-29T05:28:09.937Z,1034.8
2016-11-29T05:29:11.372Z,1034.8
2016-11-29T05:30:12.303Z,1034.8
2016-11-29T05:31:13.734Z,1034.8
2016-11-29T05:32:15.166Z,1034.8
2016-11-29T05:33:16.594Z,1034.8
2016-11-29T05:34:18.031Z,1034.8
2016-11-29T05:35:19.471Z,1034.8
2016-11-29T05:36:20.661Z,1034.8
2016-11-29T05:38:23.494Z,1034.8
2016-11-29T05:40:25.834Z,1034.7
2016-11-29T05:41:27.258Z,1034.7
2016-11-29T05:42:28.690Z,1034.8
2016-11-29T05:43:30.127Z,1034.8
2016-11-29T05:44:31.560Z,1034.8
2016-11-29T05:45:33.024Z,1034.8
2016-11-29T05:46:33.949Z,1034.8
2016-11-29T05:47:35.381Z,1034.8
2016-11-29T05:48:36.804Z,1034.8
2016-11-29T05:49:38.235Z,1034.8
2016-11-29T05:50:39.667Z,1034.8
2016-11-29T05:51:41.105Z,1034.8
2016-11-29T05:52:42.533Z,1034.8
2016-11-29T05:53:43.491Z,1034.9
2016-11-29T05:54:45.068Z,1034.8
2016-11-29T05:55:46.503Z,1034.8
2016-11-29T05:56:47.934Z,1034.8
2016-11-29T05:57:48.860Z,1034.8
2016-11-29T05:58:50.294Z,1034.8
2016-11-29T05:59:51.736Z,1034.8
2016-11-29T06:00:53.167Z,1034.8
2016-11-29T06:01:54.598Z,1034.8
2016-11-29T06:02:56.035Z,1034.8
2016-11-29T06:03:56.967Z,1034.8
2016-11-29T06:04:58.394Z,1034.8
2016-11-29T06:06:02.576Z,1034.8
2016-11-29T06:07:01.491Z,1034.8
2016-11-29T06:08:02.424Z,1034.8
2016-11-29T06:09:03.746Z,1034.8
2016-11-29T06:10:05.100Z,1034.8
2016-11-29T06:11:06.492Z,1034.8
2016-11-29T06:12:07.959Z,1034.8
2016-11-29T06:13:09.230Z,1034.8
2016-11-29T06:14:10.728Z,1034.8
2016-11-29T06:15:11.859Z,1034.9
2016-11-29T06:17:14.637Z,1034.9
2016-11-29T06:18:16.170Z,1034.8
2016-11-29T06:19:17.329Z,1034.9
2016-11-29T06:20:18.626Z,1034.9
2016-11-29T06:21:20.151Z,1034.9
2016-11-29T06:22:21.438Z,1035
2016-11-29T06:23:23.001Z,1035
2016-11-29T06:24:24.260Z,1035
2016-11-29T06:25:25.433Z,1035
2016-11-29T06:26:27.093Z,1035
2016-11-29T06:27:28.526Z,1035
2016-11-29T06:28:29.452Z,1035
2016-11-29T06:29:30.894Z,1035
2016-11-29T06:30:32.324Z,1035
2016-11-29T06:31:33.887Z,1035.1
2016-11-29T06:32:35.318Z,1035.1
2016-11-29T06:33:36.251Z,1035.1
2016-11-29T06:35:39.083Z,1035.1
2016-11-29T06:36:40.518Z,1035.1
2016-11-29T06:37:41.951Z,1035.1
2016-11-29T06:38:43.381Z,1035.1
2016-11-29T06:39:44.306Z,1035.1
2016-11-29T06:40:45.739Z,1035.1
2016-11-29T06:41:47.173Z,1035.1
2016-11-29T06:42:48.605Z,1035.2
2016-11-29T06:43:50.038Z,1035.2
2016-11-29T06:44:51.475Z,1035.2
2016-11-29T06:45:52.401Z,1035.2
2016-11-29T06:46:53.834Z,1035.2
2016-11-29T06:47:55.264Z,1035.2
2016-11-29T06:48:56.701Z,1035.2
2016-11-29T06:50:59.537Z,1035.3
2016-11-29T06:52:00.971Z,1035.3
2016-11-29T06:53:01.897Z,1035.3
2016-11-29T06:54:03.332Z,1035.3
2016-11-29T06:55:04.762Z,1035.3
2016-11-29T06:56:06.195Z,1035.4
2016-11-29T06:57:07.629Z,1035.3
2016-11-29T06:58:09.063Z,1035.4
2016-11-29T06:59:09.990Z,1035.4
2016-11-29T07:00:11.425Z,1035.4
2016-11-29T07:01:12.855Z,1035.4
2016-11-29T07:02:14.283Z,1035.4
2016-11-29T07:03:15.722Z,1035.3
2016-11-29T07:04:17.152Z,1035.4
2016-11-29T07:06:19.614Z,1035.4
2016-11-29T07:07:21.046Z,1035.4
2016-11-29T07:09:23.876Z,1035.5
2016-11-29T07:10:24.814Z,1035.5
2016-11-29T07:11:26.249Z,1035.4
2016-11-29T07:12:27.680Z,1035.5
2016-11-29T07:13:29.110Z,1035.4
2016-11-29T07:14:30.544Z,1035.5
2016-11-29T07:15:31.987Z,1035.4
2016-11-29T07:17:34.321Z,1035.5
2016-11-29T07:18:35.762Z,1035.5
2016-11-29T07:19:37.194Z,1035.5
2016-11-29T07:20:38.625Z,1035.5
2016-11-29T07:21:40.061Z,1035.5
2016-11-29T07:22:40.991Z,1035.5
2016-11-29T07:23:42.424Z,1035.5
2016-11-29T07:25:45.211Z,1035.5
2016-11-29T07:26:46.643Z,1035.5
2016-11-29T07:27:48.070Z,1035.5
2016-11-29T07:28:49.500Z,1035.5
2016-11-29T07:29:50.939Z,1035.5
2016-11-29T07:30:51.868Z,1035.5
2016-11-29T07:31:53.298Z,1035.5
2016-11-29T07:32:54.735Z,1035.5
2016-11-29T07:33:56.171Z,1035.5
2016-11-29T07:34:57.606Z,1035.5
2016-11-29T07:35:59.042Z,1035.5
2016-11-29T07:36:59.967Z,1035.5
2016-11-29T07:38:01.859Z,1035.6
2016-11-29T07:39:02.784Z,1035.6
2016-11-29T07:40:04.212Z,1035.6
2016-11-29T07:41:05.424Z,1035.6
2016-11-29T07:42:06.854Z,1035.6
2016-11-29T07:44:09.686Z,1035.6
2016-11-29T07:45:11.115Z,1035.6
2016-11-29T07:47:13.442Z,1035.6
2016-11-29T07:48:14.882Z,1035.7
2016-11-29T07:49:16.317Z,1035.6
2016-11-29T07:52:20.549Z,1035.6
2016-11-29T07:53:21.984Z,1035.6
2016-11-29T07:54:22.913Z,1035.6
2016-11-29T07:55:24.345Z,1035.6
2016-11-29T07:56:25.776Z,1035.6
2016-11-29T07:57:27.204Z,1035.6
2016-11-29T07:59:30.040Z,1035.6
2016-11-29T08:00:31.467Z,1035.6
2016-11-29T08:01:32.903Z,1035.6
2016-11-29T08:02:33.831Z,1035.7
2016-11-29T08:03:35.264Z,1035.6
2016-11-29T08:04:36.699Z,1035.6
2016-11-29T08:06:39.531Z,1035.6
2016-11-29T08:07:40.966Z,1035.6
2016-11-29T08:08:42.393Z,1035.6
2016-11-29T08:09:43.332Z,1035.6
2016-11-29T08:10:44.759Z,1035.6
2016-11-29T08:11:46.226Z,1035.6
2016-11-29T08:12:47.663Z,1035.6
2016-11-29T08:13:49.095Z,1035.7
2016-11-29T08:14:50.531Z,1035.7
2016-11-29T08:15:51.468Z,1035.6
2016-11-29T08:17:54.440Z,1035.7
2016-11-29T08:18:55.872Z,1035.7
2016-11-29T08:19:57.300Z,1035.7
2016-11-29T08:20:58.735Z,1035.6
2016-11-29T08:21:59.663Z,1035.7
2016-11-29T08:23:01.097Z,1035.7
2016-11-29T08:24:02.530Z,1035.6
2016-11-29T08:25:03.963Z,1035.6
2016-11-29T08:26:05.443Z,1035.6
2016-11-29T08:27:06.877Z,1035.7
2016-11-29T08:29:09.443Z,1035.7
2016-11-29T08:30:10.877Z,1035.7
2016-11-29T08:31:12.309Z,1035.6
2016-11-29T08:32:13.738Z,1035.6
2016-11-29T08:33:14.670Z,1035.7
2016-11-29T08:34:16.148Z,1035.7
2016-11-29T08:35:17.578Z,1035.7
2016-11-29T08:36:19.014Z,1035.6
2016-11-29T08:37:20.451Z,1035.6
2016-11-29T08:38:21.884Z,1035.7
2016-11-29T08:40:24.210Z,1035.6
2016-11-29T08:41:25.643Z,1035.6
2016-11-29T08:42:27.075Z,1035.7
2016-11-29T08:43:28.506Z,1035.7
2016-11-29T08:44:29.942Z,1035.7
2016-11-29T08:45:31.383Z,1035.6
2016-11-29T08:46:32.810Z,1035.7
2016-11-29T08:47:33.735Z,1035.7
2016-11-29T08:48:35.190Z,1035.7
2016-11-29T08:49:36.624Z,1035.8
2016-11-29T08:50:38.063Z,1035.8
2016-11-29T08:51:39.502Z,1035.8
2016-11-29T08:52:40.933Z,1035.8
2016-11-29T08:53:42.365Z,1035.8
2016-11-29T08:54:43.302Z,1035.8
2016-11-29T08:55:44.731Z,1035.9
2016-11-29T08:56:46.167Z,1035.9
2016-11-29T08:57:47.663Z,1035.9
2016-11-29T08:58:49.098Z,1035.9
2016-11-29T08:59:50.530Z,1035.9
2016-11-29T09:00:51.455Z,1035.9
2016-11-29T09:01:52.886Z,1035.9
2016-11-29T09:02:54.452Z,1035.9
2016-11-29T09:03:55.881Z,1035.9
2016-11-29T09:04:57.316Z,1035.9
2016-11-29T09:05:58.746Z,1035.9
2016-11-29T09:08:01.072Z,1035.9
2016-11-29T09:09:02.508Z,1035.9
2016-11-29T09:10:03.943Z,1035.9
2016-11-29T09:11:05.406Z,1035.9
2016-11-29T09:12:06.836Z,1035.9
2016-11-29T09:13:08.270Z,1035.9
2016-11-29T09:14:09.200Z,1036
2016-11-29T09:15:10.640Z,1036
2016-11-29T09:16:12.080Z,1035.9
2016-11-29T09:17:13.519Z,1036
2016-11-29T09:18:14.948Z,1035.9
2016-11-29T09:20:17.782Z,1035.9
2016-11-29T09:21:18.715Z,1035.9
2016-11-29T09:22:20.151Z,1036
2016-11-29T09:23:21.583Z,1036
2016-11-29T09:24:23.015Z,1036
2016-11-29T09:25:24.451Z,1036
2016-11-29T09:27:27.282Z,1036
2016-11-29T09:28:28.716Z,1036
2016-11-29T09:29:29.646Z,1036
2016-11-29T09:30:31.075Z,1036
2016-11-29T09:31:32.514Z,1036
2016-11-29T09:32:33.951Z,1036
2016-11-29T09:33:35.394Z,1036
2016-11-29T09:34:36.825Z,1036
2016-11-29T09:35:38.253Z,1036
2016-11-29T09:36:39.181Z,1036
2016-11-29T09:37:40.626Z,1036
2016-11-29T09:38:42.057Z,1036
2016-11-29T09:39:43.494Z,1036
2016-11-29T09:40:44.920Z,1036
2016-11-29T09:43:49.151Z,1035.9
2016-11-29T09:44:50.580Z,1035.9
2016-11-29T09:45:51.517Z,1035.8
2016-11-29T09:46:52.960Z,1035.8
2016-11-29T09:47:54.392Z,1035.9
2016-11-29T09:48:55.821Z,1035.9
2016-11-29T09:49:57.258Z,1035.9
2016-11-29T09:50:58.690Z,1035.9
2016-11-29T09:52:00.128Z,1035.9
2016-11-29T09:53:01.055Z,1036
2016-11-29T09:55:03.887Z,1035.9
2016-11-29T09:56:05.323Z,1035.9
2016-11-29T09:57:06.756Z,1035.9
2016-11-29T09:58:08.193Z,1035.9
2016-11-29T09:59:09.627Z,1036
2016-11-29T10:00:11.058Z,1036
2016-11-29T10:01:12.118Z,1036
2016-11-29T10:02:13.552Z,1036
2016-11-29T10:03:14.980Z,1036
2016-11-29T10:04:16.406Z,1036
2016-11-29T10:05:18.065Z,1036
2016-11-29T10:06:18.931Z,1036
2016-11-29T10:07:20.367Z,1036
2016-11-29T10:08:21.799Z,1036
2016-11-29T10:09:23.236Z,1036
2016-11-29T10:10:24.667Z,1036
2016-11-29T10:11:26.096Z,1036
2016-11-29T10:12:27.088Z,1036
2016-11-29T10:13:28.515Z,1036
2016-11-29T10:14:29.945Z,1036
2016-11-29T10:15:31.370Z,1036
2016-11-29T10:16:32.802Z,1036
2016-11-29T10:17:34.238Z,1036
2016-11-29T10:18:35.665Z,1036
2016-11-29T10:19:36.594Z,1036
2016-11-29T10:20:38.025Z,1036
2016-11-29T10:21:39.455Z,1036
2016-11-29T10:22:40.901Z,1036
2016-11-29T10:24:43.873Z,1036
2016-11-29T10:25:44.807Z,1035.9
2016-11-29T10:26:46.255Z,1036
2016-11-29T10:27:47.689Z,1035.9
2016-11-29T10:28:49.118Z,1035.9
2016-11-29T10:29:50.558Z,1036
2016-11-29T10:30:51.991Z,1035.9
2016-11-29T10:31:53.426Z,1036
2016-11-29T10:32:54.552Z,1035.9
2016-11-29T10:33:55.984Z,1035.9
2016-11-29T10:35:58.822Z,1035.9
2016-11-29T10:37:00.246Z,1035.9
2016-11-29T10:38:01.681Z,1035.9
2016-11-29T10:39:02.610Z,1035.9
2016-11-29T10:40:04.039Z,1035.9
2016-11-29T10:41:05.501Z,1035.9
2016-11-29T10:42:06.935Z,1035.9
2016-11-29T10:43:08.368Z,1035.9
2016-11-29T10:44:09.830Z,1035.9
2016-11-29T10:45:11.266Z,1035.9
2016-11-29T10:46:12.201Z,1035.9
2016-11-29T10:47:13.636Z,1035.9
2016-11-29T10:48:15.066Z,1035.9
2016-11-29T10:49:16.505Z,1035.8
2016-11-29T10:51:19.340Z,1035.8
2016-11-29T10:52:20.777Z,1035.8
2016-11-29T10:53:22.208Z,1035.8
2016-11-29T10:56:25.939Z,1035.8
2016-11-29T10:57:27.376Z,1035.8
2016-11-29T10:58:28.803Z,1035.7
2016-11-29T10:59:30.239Z,1035.7
2016-11-29T11:00:31.675Z,1035.7
2016-11-29T11:01:33.110Z,1035.8
2016-11-29T11:02:34.549Z,1035.7
2016-11-29T11:03:35.611Z,1035.7
2016-11-29T11:04:37.042Z,1035.7
2016-11-29T11:05:38.479Z,1035.7
2016-11-29T11:06:39.909Z,1035.7
2016-11-29T11:07:41.337Z,1035.8
2016-11-29T11:08:42.773Z,1035.6
2016-11-29T11:09:44.205Z,1035.7
2016-11-29T11:10:45.631Z,1035.6
2016-11-29T11:11:46.557Z,1035.6
2016-11-29T11:12:47.987Z,1035.6
2016-11-29T11:13:49.425Z,1035.6
2016-11-29T11:14:50.867Z,1035.6
2016-11-29T11:15:52.303Z,1035.6
2016-11-29T11:16:53.731Z,1035.6
2016-11-29T11:17:55.161Z,1035.6
2016-11-29T11:18:56.591Z,1035.6
2016-11-29T11:19:58.023Z,1035.6
2016-11-29T11:20:58.950Z,1035.6
2016-11-29T11:22:00.383Z,1035.6
2016-11-29T11:23:01.815Z,1035.6
2016-11-29T11:24:03.242Z,1035.6
2016-11-29T11:25:04.673Z,1035.6
2016-11-29T11:26:06.110Z,1035.6
2016-11-29T11:27:07.549Z,1035.6
2016-11-29T11:28:09.044Z,1035.6
2016-11-29T11:29:09.971Z,1035.6
2016-11-29T11:30:11.400Z,1035.6
2016-11-29T11:31:12.833Z,1035.6
2016-11-29T11:32:14.264Z,1035.6
2016-11-29T11:33:15.700Z,1035.6
2016-11-29T11:35:18.530Z,1035.6
2016-11-29T11:36:19.966Z,1035.6
2016-11-29T11:37:21.394Z,1035.6
2016-11-29T11:38:22.830Z,1035.6
2016-11-29T11:39:23.759Z,1035.5
2016-11-29T11:40:25.207Z,1035.5
2016-11-29T11:41:26.637Z,1035.5
2016-11-29T11:42:28.068Z,1035.5
2016-11-29T11:43:29.496Z,1035.5
2016-11-29T11:44:30.945Z,1035.5
2016-11-29T11:45:32.374Z,1035.5
2016-11-29T11:46:33.808Z,1035.4
2016-11-29T11:47:34.744Z,1035.5
2016-11-29T11:48:36.174Z,1035.4
2016-11-29T11:49:37.633Z,1035.5
2016-11-29T11:50:39.256Z,1035.5
2016-11-29T11:51:40.691Z,1035.4
2016-11-29T11:52:42.125Z,1035.4
2016-11-29T11:53:43.056Z,1035.5
2016-11-29T11:54:44.487Z,1035.5
2016-11-29T11:55:45.918Z,1035.5
2016-11-29T11:56:47.348Z,1035.5
2016-11-29T11:57:48.802Z,1035.4
2016-11-29T11:58:50.264Z,1035.5
2016-11-29T11:59:51.693Z,1035.4
2016-11-29T12:00:53.126Z,1035.4
2016-11-29T12:01:54.557Z,1035.5
2016-11-29T12:02:55.483Z,1035.5
2016-11-29T12:04:58.316Z,1035.4
2016-11-29T12:05:59.744Z,1035.4
2016-11-29T12:07:01.209Z,1035.4
2016-11-29T12:08:02.646Z,1035.4
2016-11-29T12:09:04.211Z,1035.4
2016-11-29T12:10:05.139Z,1035.4
2016-11-29T12:11:06.576Z,1035.3
2016-11-29T12:12:08.007Z,1035.4
2016-11-29T12:13:09.441Z,1035.4
2016-11-29T12:14:10.879Z,1035.3
2016-11-29T12:15:12.309Z,1035.3
2016-11-29T12:16:13.742Z,1035.3
2016-11-29T12:17:15.192Z,1035.3
2016-11-29T12:19:18.037Z,1035.3
2016-11-29T12:20:18.959Z,1035.3
2016-11-29T12:21:20.389Z,1035.3
2016-11-29T12:22:21.819Z,1035.2
2016-11-29T12:23:23.256Z,1035.3
2016-11-29T12:24:24.691Z,1035.3
2016-11-29T12:25:26.123Z,1035.2
2016-11-29T12:26:27.558Z,1035.2
2016-11-29T12:27:28.990Z,1035.2
2016-11-29T12:28:30.424Z,1035.2
2016-11-29T12:29:31.856Z,1035.2
2016-11-29T12:30:32.784Z,1035.2
2016-11-29T12:31:34.217Z,1035.2
2016-11-29T12:32:35.653Z,1035.1
2016-11-29T12:34:38.483Z,1035.1
2016-11-29T12:35:39.917Z,1035.1
2016-11-29T12:36:41.355Z,1035.1
2016-11-29T12:37:42.787Z,1035.1
2016-11-29T12:38:44.234Z,1035.1
2016-11-29T12:39:45.664Z,1035.1
2016-11-29T12:40:46.626Z,1035.1
2016-11-29T12:41:48.070Z,1035.1
2016-11-29T12:42:49.515Z,1035.1
2016-11-29T12:43:50.953Z,1035.1
2016-11-29T12:44:52.388Z,1035.1
2016-11-29T12:45:53.818Z,1035.2
2016-11-29T12:46:55.261Z,1035.1
2016-11-29T12:47:56.696Z,1035.1
2016-11-29T12:48:58.137Z,1035.1
2016-11-29T12:49:59.570Z,1035.1
2016-11-29T12:51:00.499Z,1035.1
2016-11-29T12:53:03.334Z,1035.1
2016-11-29T12:54:04.764Z,1035
2016-11-29T12:55:06.189Z,1035
2016-11-29T12:56:07.636Z,1035.1
2016-11-29T12:57:09.068Z,1035
2016-11-29T12:58:10.503Z,1035.1
2016-11-29T12:59:11.934Z,1035.1
2016-11-29T13:00:13.362Z,1035
2016-11-29T13:01:14.794Z,1035
2016-11-29T13:02:15.722Z,1035
2016-11-29T13:03:17.149Z,1035
2016-11-29T13:05:19.984Z,1035
2016-11-29T13:06:21.416Z,1035.1
2016-11-29T13:07:22.847Z,1035.1
2016-11-29T13:08:24.286Z,1035
2016-11-29T13:09:25.720Z,1035.1
2016-11-29T13:11:28.547Z,1035.1
2016-11-29T13:12:29.977Z,1035.1
2016-11-29T13:13:31.413Z,1035.1
2016-11-29T13:14:32.848Z,1035.1
2016-11-29T13:15:33.777Z,1035.1
2016-11-29T13:16:35.213Z,1035
2016-11-29T13:17:36.646Z,1035
2016-11-29T13:18:38.074Z,1035.1
2016-11-29T13:19:39.506Z,1035.1
2016-11-29T13:20:40.933Z,1035.1
2016-11-29T13:21:42.363Z,1035.1
2016-11-29T13:22:43.801Z,1035.1
2016-11-29T13:23:45.233Z,1035.1
2016-11-29T13:24:46.670Z,1035.1
2016-11-29T13:25:48.106Z,1035
2016-11-29T13:26:49.037Z,1035.1
2016-11-29T13:27:50.474Z,1035.1
2016-11-29T13:28:51.904Z,1035
2016-11-29T13:29:53.333Z,1035
2016-11-29T13:30:54.768Z,1035
2016-11-29T13:31:56.227Z,1035
2016-11-29T13:32:57.662Z,1034.9
2016-11-29T13:33:59.091Z,1034.9
2016-11-29T13:35:00.522Z,1035
2016-11-29T13:36:01.955Z,1035
2016-11-29T13:37:02.882Z,1034.9
2016-11-29T13:38:04.316Z,1034.9
2016-11-29T13:39:05.749Z,1034.9
2016-11-29T13:40:07.325Z,1034.9
2016-11-29T13:41:08.758Z,1034.9
2016-11-29T13:42:10.217Z,1034.9
2016-11-29T13:43:11.644Z,1035
2016-11-29T13:44:13.083Z,1034.9
2016-11-29T13:45:14.012Z,1034.9
2016-11-29T13:46:15.448Z,1034.9
2016-11-29T13:47:16.879Z,1034.9
2016-11-29T13:48:18.319Z,1034.9
2016-11-29T13:49:19.749Z,1035
2016-11-29T13:51:22.581Z,1035
2016-11-29T13:52:24.014Z,1035
2016-11-29T13:53:25.584Z,1035
2016-11-29T13:54:26.517Z,1035